createdAt,value
2023-05-18T00:02:04.633Z,35.80
2023-05-18T00:04:32.243Z,35.90
2023-05-18T00:06:58.990Z,35.90
2023-05-18T00:09:27.293Z,36.50
2023-05-18T00:11:54.212Z,36.40
2023-05-18T00:14:21.279Z,36.50
2023-05-18T00:16:48.547Z,36.60
2023-05-18T00:19:15.713Z,36.50
2023-05-18T00:21:42.737Z,36.50
2023-05-18T00:24:10.632Z,36.00
2023-05-18T00:26:39.394Z,35.70
2023-05-18T00:29:06.544Z,35.40
2023-05-18T00:31:33.817Z,35.20
2023-05-18T00:34:00.542Z,34.80
2023-05-18T00:36:27.226Z,34.60
2023-05-18T00:38:53.893Z,34.80
2023-05-18T00:41:20.655Z,35.00
2023-05-18T00:43:48.698Z,35.50
2023-05-18T00:46:15.463Z,36.10
2023-05-18T00:48:42.389Z,35.60
2023-05-18T00:51:09.670Z,35.90
2023-05-18T00:53:36.906Z,35.60
2023-05-18T00:56:03.894Z,35.30
2023-05-18T00:58:30.831Z,35.40
2023-05-18T01:00:58.952Z,34.80
2023-05-18T01:03:25.750Z,34.40
2023-05-18T01:05:52.417Z,34.20
2023-05-18T01:08:19.340Z,34.40
2023-05-18T01:10:52.549Z,34.50
2023-05-18T01:13:27.278Z,34.60
2023-05-18T01:15:57.189Z,34.70
2023-05-18T01:18:30.513Z,34.40
2023-05-18T01:20:59.911Z,34.60
2023-05-18T01:23:45.066Z,34.50
2023-05-18T01:26:15.815Z,34.20
2023-05-18T01:28:45.861Z,34.00
2023-05-18T01:31:13.537Z,33.80
2023-05-18T01:33:40.347Z,33.90
2023-05-18T01:36:07.860Z,33.90
2023-05-18T01:38:35.602Z,34.00
2023-05-18T01:41:11.226Z,34.40
2023-05-18T01:43:46.332Z,34.10
2023-05-18T01:46:19.479Z,34.10
2023-05-18T01:48:50.426Z,34.00
2023-05-18T01:51:20.734Z,34.00
2023-05-18T01:53:55.170Z,33.70
2023-05-18T01:56:22.091Z,34.00
2023-05-18T01:58:50.633Z,34.00
2023-05-18T02:01:17.919Z,34.10
2023-05-18T02:03:44.706Z,34.00
2023-05-18T02:06:11.448Z,34.00
2023-05-18T02:08:38.278Z,34.10
2023-05-18T02:11:05.126Z,34.00
2023-05-18T02:13:31.824Z,34.30
2023-05-18T02:15:59.954Z,34.30
2023-05-18T02:18:26.726Z,34.20
2023-05-18T02:20:58.425Z,34.00
2023-05-18T02:23:25.165Z,33.90
2023-05-18T02:25:52.004Z,34.10
2023-05-18T02:28:18.671Z,34.10
2023-05-18T02:30:45.345Z,34.30
2023-05-18T02:33:13.514Z,34.10
2023-05-18T02:35:40.364Z,33.90
2023-05-18T02:38:07.260Z,33.90
2023-05-18T02:40:33.971Z,33.90
2023-05-18T02:43:00.728Z,33.90
2023-05-18T02:45:27.595Z,33.80
2023-05-18T02:47:54.375Z,33.80
2023-05-18T02:50:22.516Z,33.80
2023-05-18T02:52:49.220Z,33.90
2023-05-18T02:55:16.203Z,33.80
2023-05-18T02:57:42.976Z,33.80
2023-05-18T03:00:11.017Z,33.70
2023-05-18T03:02:37.810Z,33.80
2023-05-18T03:05:05.327Z,33.70
2023-05-18T03:07:33.346Z,33.80
2023-05-18T03:10:02.149Z,33.70
2023-05-18T03:12:28.945Z,33.70
2023-05-18T03:14:55.664Z,33.70
2023-05-18T03:17:22.482Z,33.70
2023-05-18T03:19:49.302Z,34.00
2023-05-18T03:22:16.061Z,33.90
2023-05-18T03:24:44.244Z,33.90
2023-05-18T03:27:10.958Z,33.80
2023-05-18T03:29:37.647Z,33.80
2023-05-18T03:32:04.789Z,33.80
2023-05-18T03:34:31.504Z,33.70
2023-05-18T03:36:58.233Z,33.80
2023-05-18T03:39:25.016Z,34.30
2023-05-18T03:41:53.147Z,34.60
2023-05-18T03:44:20.425Z,34.70
2023-05-18T03:46:47.236Z,34.30
2023-05-18T03:49:14.006Z,33.80
2023-05-18T03:51:40.766Z,33.90
2023-05-18T03:54:07.636Z,34.20
2023-05-18T03:56:34.408Z,34.40
2023-05-18T03:59:02.572Z,34.30
2023-05-18T04:01:30.604Z,34.30
2023-05-18T04:03:57.699Z,34.50
2023-05-18T04:06:24.569Z,34.70
2023-05-18T04:08:51.509Z,34.90
2023-05-18T04:11:18.282Z,35.50
2023-05-18T04:13:45.022Z,36.10
2023-05-18T04:16:13.070Z,36.40
2023-05-18T04:18:40.795Z,36.60
2023-05-18T04:21:07.625Z,36.70
2023-05-18T04:23:34.350Z,36.80
2023-05-18T04:26:01.144Z,37.10
2023-05-18T04:28:27.806Z,36.60
2023-05-18T04:30:54.531Z,36.90
2023-05-18T04:33:22.597Z,37.90
2023-05-18T04:35:50.841Z,38.30
2023-05-18T04:38:17.529Z,38.60
2023-05-18T04:40:44.248Z,38.40
2023-05-18T04:43:10.999Z,39.10
2023-05-18T04:45:37.769Z,38.70
2023-05-18T04:48:04.664Z,38.70
2023-05-18T04:50:32.816Z,39.10
2023-05-18T04:52:59.545Z,39.90
2023-05-18T04:55:26.594Z,40.00
2023-05-18T04:57:54.274Z,40.80
2023-05-18T05:00:21.339Z,39.50
2023-05-18T05:02:48.170Z,37.50
2023-05-18T05:05:14.957Z,37.10
2023-05-18T05:07:42.948Z,38.50
2023-05-18T05:10:10.248Z,40.10
2023-05-18T05:12:37.238Z,40.20
2023-05-18T05:15:04.381Z,40.80
2023-05-18T05:17:31.128Z,40.70
2023-05-18T05:19:57.932Z,40.00
2023-05-18T05:22:25.021Z,40.70
2023-05-18T05:24:54.193Z,40.40
2023-05-18T05:27:20.894Z,39.40
2023-05-18T05:29:47.612Z,40.60
2023-05-18T05:32:14.303Z,39.80
2023-05-18T05:34:41.160Z,40.80
2023-05-18T05:37:07.893Z,40.80
2023-05-18T05:39:34.647Z,38.80
2023-05-18T05:42:02.802Z,37.90
2023-05-18T05:44:29.931Z,38.60
2023-05-18T05:46:56.646Z,38.70
2023-05-18T05:49:23.445Z,38.70
2023-05-18T05:51:50.112Z,37.60
2023-05-18T05:54:16.835Z,37.30
2023-05-18T05:56:43.561Z,37.20
2023-05-18T05:59:11.611Z,37.10
2023-05-18T06:01:38.332Z,37.30
2023-05-18T06:04:05.332Z,37.30
2023-05-18T06:06:32.104Z,37.90
2023-05-18T06:08:58.791Z,36.80
2023-05-18T06:11:25.546Z,37.10
2023-05-18T06:13:52.252Z,37.70
2023-05-18T06:16:20.298Z,38.10
2023-05-18T06:18:47.070Z,38.20
2023-05-18T06:21:13.819Z,37.10
2023-05-18T06:23:41.968Z,37.30
2023-05-18T06:26:09.064Z,36.60
2023-05-18T06:28:35.851Z,36.90
2023-05-18T06:31:02.591Z,36.10
2023-05-18T06:33:31.191Z,36.10
2023-05-18T06:35:58.012Z,36.10
2023-05-18T06:38:24.911Z,36.30
2023-05-18T06:40:51.777Z,36.50
2023-05-18T06:43:20.316Z,37.40
2023-05-18T06:45:47.970Z,37.40
2023-05-18T06:48:15.351Z,36.50
2023-05-18T06:50:43.450Z,36.20
2023-05-18T06:53:11.684Z,37.00
2023-05-18T06:55:38.445Z,37.00
2023-05-18T06:58:05.152Z,36.80
2023-05-18T07:00:31.849Z,36.10
2023-05-18T07:02:58.598Z,36.10
2023-05-18T07:05:25.327Z,36.20
2023-05-18T07:07:53.578Z,35.80
2023-05-18T07:10:20.340Z,36.20
2023-05-18T07:12:47.057Z,36.00
2023-05-18T07:15:13.722Z,35.60
2023-05-18T07:17:40.613Z,35.80
2023-05-18T07:20:08.401Z,35.40
2023-05-18T07:22:35.245Z,35.50
2023-05-18T07:25:03.691Z,35.40
2023-05-18T07:27:30.377Z,35.60
2023-05-18T07:29:57.101Z,35.20
2023-05-18T07:32:23.837Z,35.20
2023-05-18T07:34:50.521Z,35.30
2023-05-18T07:37:17.208Z,35.00
2023-05-18T07:39:43.957Z,34.80
2023-05-18T07:42:12.039Z,34.80
2023-05-18T07:44:38.778Z,34.60
2023-05-18T07:47:05.956Z,34.80
2023-05-18T07:49:32.724Z,34.90
2023-05-18T07:51:59.424Z,34.90
2023-05-18T07:54:26.204Z,34.50
2023-05-18T07:56:52.933Z,34.50
2023-05-18T07:59:20.965Z,34.40
2023-05-18T08:01:47.700Z,34.40
2023-05-18T08:04:14.565Z,34.40
2023-05-18T08:06:41.355Z,34.00
2023-05-18T08:09:08.147Z,34.20
2023-05-18T08:11:35.937Z,34.50
2023-05-18T08:14:02.731Z,34.40
2023-05-18T08:16:30.818Z,33.40
2023-05-18T08:18:57.555Z,32.90
2023-05-18T08:21:24.322Z,32.70
2023-05-18T08:23:51.078Z,32.90
2023-05-18T08:26:17.791Z,34.50
2023-05-18T08:28:44.469Z,32.60
2023-05-18T08:31:11.260Z,33.70
2023-05-18T08:33:39.287Z,33.90
2023-05-18T08:36:06.807Z,33.70
2023-05-18T08:38:33.514Z,32.60
2023-05-18T08:41:07.736Z,32.80
2023-05-18T08:43:37.868Z,33.20
2023-05-18T08:46:10.743Z,33.70
2023-05-18T08:48:40.183Z,32.80
2023-05-18T08:51:08.565Z,33.60
2023-05-18T08:53:37.789Z,33.30
2023-05-18T08:56:05.324Z,33.10
2023-05-18T08:58:35.691Z,33.10
2023-05-18T09:01:03.747Z,32.90
2023-05-18T09:03:31.410Z,33.00
2023-05-18T09:06:01.172Z,32.80
2023-05-18T09:08:29.194Z,32.40
2023-05-18T09:10:57.733Z,31.80
2023-05-18T09:13:24.836Z,31.60
2023-05-18T09:15:51.599Z,31.70
2023-05-18T09:18:18.626Z,30.50
2023-05-18T09:20:45.932Z,30.90
2023-05-18T09:23:15.311Z,30.10
2023-05-18T09:25:44.198Z,30.50
2023-05-18T09:28:11.864Z,30.80
2023-05-18T09:30:42.158Z,30.00
2023-05-18T09:33:16.682Z,30.90
2023-05-18T09:35:44.781Z,31.00
2023-05-18T09:38:12.116Z,30.40
2023-05-18T09:40:44.311Z,30.80
2023-05-18T09:43:10.995Z,31.00
2023-05-18T09:45:42.125Z,31.00
2023-05-18T09:48:09.735Z,30.90
2023-05-18T09:50:36.645Z,31.50
2023-05-18T09:53:05.984Z,30.30
2023-05-18T09:55:32.890Z,30.60
2023-05-18T09:58:01.313Z,31.70
2023-05-18T10:00:28.007Z,31.30
2023-05-18T10:02:54.778Z,32.00
2023-05-18T10:05:22.735Z,32.30
2023-05-18T10:07:51.353Z,32.20
2023-05-18T10:10:19.284Z,32.60
2023-05-18T10:12:46.183Z,32.80
2023-05-18T10:15:17.302Z,31.10
2023-05-18T10:17:44.936Z,31.20
2023-05-18T10:20:17.036Z,31.60
2023-05-18T10:22:46.141Z,32.50
2023-05-18T10:25:18.345Z,31.30
2023-05-18T10:27:46.657Z,29.90
2023-05-18T10:30:16.184Z,29.40
2023-05-18T10:32:45.696Z,29.20
2023-05-18T10:35:20.930Z,29.40
2023-05-18T10:37:48.498Z,31.00
2023-05-18T10:40:16.902Z,30.00
2023-05-18T10:42:45.082Z,29.80
2023-05-18T10:45:12.215Z,31.00
2023-05-18T10:47:41.611Z,30.50
2023-05-18T10:50:09.887Z,31.60
2023-05-18T10:52:37.881Z,31.00
2023-05-18T10:55:06.164Z,31.50
2023-05-18T10:57:38.151Z,31.00
2023-05-18T11:00:06.747Z,31.40
2023-05-18T11:02:34.091Z,30.80
2023-05-18T11:05:05.567Z,29.20
2023-05-18T11:07:32.648Z,29.00
2023-05-18T11:10:01.879Z,27.60
2023-05-18T11:12:32.173Z,29.80
2023-05-18T11:14:58.946Z,30.10
2023-05-18T11:17:28.739Z,30.00
2023-05-18T11:20:17.038Z,30.60
2023-05-18T11:22:49.155Z,30.00
2023-05-18T11:25:37.444Z,29.50
2023-05-18T11:28:05.894Z,30.00
2023-05-18T11:30:46.977Z,29.60
2023-05-18T11:33:14.962Z,26.80
2023-05-18T11:36:03.510Z,28.10
2023-05-18T11:38:47.919Z,29.30
2023-05-18T11:41:28.558Z,29.50
2023-05-18T11:44:04.472Z,28.40
2023-05-18T11:46:31.220Z,28.90
2023-05-18T11:49:03.451Z,28.40
2023-05-18T11:51:32.842Z,26.20
2023-05-18T11:53:59.949Z,26.80
2023-05-18T11:56:27.127Z,25.40
2023-05-18T11:59:11.715Z,26.60
2023-05-18T12:01:38.547Z,27.40
2023-05-18T12:04:06.165Z,27.10
2023-05-18T12:06:34.394Z,26.10
2023-05-18T12:09:01.328Z,25.90
2023-05-18T12:11:28.104Z,25.30
2023-05-18T12:13:55.261Z,25.70
2023-05-18T12:16:22.368Z,25.70
2023-05-18T12:18:49.469Z,25.70
2023-05-18T12:21:22.177Z,26.90
2023-05-18T12:23:57.632Z,27.40
2023-05-18T12:26:24.409Z,25.40
2023-05-18T12:28:52.024Z,25.40
2023-05-18T12:31:19.098Z,26.40
2023-05-18T12:33:45.856Z,26.80
2023-05-18T12:36:13.271Z,25.90
2023-05-18T12:38:39.973Z,25.00
2023-05-18T12:41:08.104Z,25.90
2023-05-18T12:43:35.137Z,26.90
2023-05-18T12:46:02.454Z,27.30
2023-05-18T12:48:35.410Z,25.60
2023-05-18T12:51:02.322Z,25.50
2023-05-18T12:53:41.457Z,26.10
2023-05-18T12:56:09.516Z,26.40
2023-05-18T12:58:36.213Z,27.50
2023-05-18T13:01:07.873Z,25.40
2023-05-18T13:03:34.775Z,25.70
2023-05-18T13:06:05.977Z,25.60
2023-05-18T13:08:34.074Z,26.10
2023-05-18T13:11:12.838Z,26.00
2023-05-18T13:13:57.645Z,25.40
2023-05-18T13:16:24.479Z,25.40
2023-05-18T13:18:56.476Z,26.50
2023-05-18T13:21:23.209Z,25.20
2023-05-18T13:23:50.038Z,25.80
2023-05-18T13:26:16.743Z,25.80
2023-05-18T13:28:46.579Z,25.20
2023-05-18T13:31:13.450Z,25.30
2023-05-18T13:33:40.283Z,26.20
2023-05-18T13:36:07.532Z,26.70
2023-05-18T13:38:34.231Z,26.10
2023-05-18T13:41:00.940Z,26.60
2023-05-18T13:43:27.666Z,26.10
2023-05-18T13:45:55.777Z,25.40
2023-05-18T13:48:22.597Z,25.90
2023-05-18T13:50:49.372Z,25.60
2023-05-18T13:53:16.286Z,25.30
2023-05-18T13:55:42.982Z,25.60
2023-05-18T13:58:09.762Z,25.30
2023-05-18T14:00:36.776Z,25.70
2023-05-18T14:03:04.883Z,25.80
2023-05-18T14:05:31.756Z,26.00
2023-05-18T14:07:58.462Z,25.60
2023-05-18T14:10:25.228Z,26.00
2023-05-18T14:12:51.953Z,25.20
2023-05-18T14:15:18.732Z,25.00
2023-05-18T14:17:45.700Z,24.90
2023-05-18T14:20:13.937Z,25.90
2023-05-18T14:22:40.997Z,25.10
2023-05-18T14:25:08.464Z,24.70
2023-05-18T14:27:35.185Z,24.70
2023-05-18T14:30:01.950Z,25.10
2023-05-18T14:32:28.774Z,25.00
2023-05-18T14:34:55.599Z,25.30
2023-05-18T14:37:23.721Z,25.30
2023-05-18T14:39:50.402Z,24.70
2023-05-18T14:42:17.132Z,25.10
2023-05-18T14:44:43.864Z,25.00
2023-05-18T14:47:10.960Z,25.00
2023-05-18T14:49:38.085Z,24.90
2023-05-18T14:52:05.542Z,24.70
2023-05-18T14:54:33.611Z,24.70
2023-05-18T14:57:00.321Z,25.50
2023-05-18T14:59:27.082Z,25.40
2023-05-18T15:01:53.923Z,25.40
2023-05-18T15:04:20.721Z,25.60
2023-05-18T15:06:48.276Z,25.00
2023-05-18T15:09:14.927Z,25.70
2023-05-18T15:11:42.968Z,25.40
2023-05-18T15:14:09.664Z,25.10
2023-05-18T15:16:36.476Z,25.30
2023-05-18T15:19:03.224Z,25.80
2023-05-18T15:21:30.004Z,24.90
2023-05-18T15:23:56.784Z,25.50
2023-05-18T15:26:23.608Z,24.90
2023-05-18T15:28:51.648Z,25.00
2023-05-18T15:31:18.384Z,25.20
2023-05-18T15:33:45.122Z,25.40
2023-05-18T15:36:11.922Z,25.30
2023-05-18T15:38:38.638Z,25.00
2023-05-18T15:41:05.382Z,25.50
2023-05-18T15:43:32.124Z,25.60
2023-05-18T15:46:00.221Z,25.90
2023-05-18T15:48:26.925Z,25.20
2023-05-18T15:50:53.834Z,25.10
2023-05-18T15:53:20.541Z,25.60
2023-05-18T15:55:47.396Z,25.00
2023-05-18T15:58:14.086Z,25.00
2023-05-18T16:00:40.769Z,25.40
2023-05-18T16:03:09.310Z,25.50
2023-05-18T16:05:36.082Z,25.10
2023-05-18T16:08:02.784Z,25.30
2023-05-18T16:10:29.959Z,25.20
2023-05-18T16:12:56.948Z,25.30
2023-05-18T16:15:23.651Z,24.90
2023-05-18T16:17:50.475Z,25.10
2023-05-18T16:20:18.674Z,25.50
2023-05-18T16:22:45.395Z,25.10
2023-05-18T16:25:12.067Z,25.50
2023-05-18T16:27:38.918Z,25.60
2023-05-18T16:30:07.029Z,25.50
2023-05-18T16:32:33.941Z,25.70
2023-05-18T16:35:00.762Z,25.50
2023-05-18T16:37:28.792Z,25.50
2023-05-18T16:39:55.507Z,25.80
2023-05-18T16:42:22.281Z,25.70
2023-05-18T16:44:49.036Z,25.80
2023-05-18T16:47:15.761Z,26.10
2023-05-18T16:49:42.549Z,26.10
2023-05-18T16:52:09.216Z,26.20
2023-05-18T16:54:37.271Z,26.20
2023-05-18T16:57:04.376Z,26.40
2023-05-18T16:59:31.082Z,26.60
2023-05-18T17:01:57.784Z,26.90
2023-05-18T17:04:24.534Z,26.70
2023-05-18T17:06:51.799Z,27.10
2023-05-18T17:09:18.525Z,26.90
2023-05-18T17:11:46.647Z,26.90
2023-05-18T17:14:13.507Z,26.80
2023-05-18T17:16:40.548Z,26.80
2023-05-18T17:19:07.443Z,27.50
2023-05-18T17:21:34.373Z,27.00
2023-05-18T17:24:01.084Z,27.00
2023-05-18T17:26:27.846Z,27.10
2023-05-18T17:28:55.979Z,27.30
2023-05-18T17:31:22.822Z,27.10
2023-05-18T17:33:49.540Z,27.10
2023-05-18T17:36:16.363Z,27.20
2023-05-18T17:38:43.117Z,27.20
2023-05-18T17:41:10.038Z,27.40
2023-05-18T17:43:36.758Z,27.50
2023-05-18T17:46:04.854Z,27.40
2023-05-18T17:48:31.609Z,27.60
2023-05-18T17:50:58.522Z,27.80
2023-05-18T17:53:25.233Z,27.90
2023-05-18T17:55:52.808Z,28.10
2023-05-18T17:58:19.517Z,28.00
2023-05-18T18:00:46.561Z,28.00
2023-05-18T18:03:14.776Z,27.90
2023-05-18T18:05:41.580Z,27.90
2023-05-18T18:08:08.298Z,27.90
2023-05-18T18:10:35.025Z,28.20
2023-05-18T18:13:01.725Z,28.30
2023-05-18T18:15:28.617Z,28.40
2023-05-18T18:17:55.437Z,28.30
2023-05-18T18:20:23.649Z,28.40
2023-05-18T18:22:50.320Z,28.20
2023-05-18T18:25:17.070Z,28.30
2023-05-18T18:27:44.014Z,28.40
2023-05-18T18:30:12.034Z,28.50
2023-05-18T18:32:38.745Z,28.50
2023-05-18T18:35:08.159Z,28.60
2023-05-18T18:37:36.248Z,28.60
2023-05-18T18:40:03.180Z,28.70
2023-05-18T18:42:29.864Z,28.60
2023-05-18T18:44:56.724Z,28.60
2023-05-18T18:47:23.549Z,28.60
2023-05-18T18:49:50.339Z,28.70
2023-05-18T18:52:17.079Z,28.70
2023-05-18T18:54:45.263Z,28.80
2023-05-18T18:57:12.092Z,28.80
2023-05-18T18:59:39.081Z,28.90
2023-05-18T19:02:05.970Z,29.00
2023-05-18T19:04:32.805Z,29.00
2023-05-18T19:06:59.541Z,29.10
2023-05-18T19:09:26.255Z,29.10
2023-05-18T19:11:54.309Z,29.10
2023-05-18T19:14:20.992Z,29.00
2023-05-18T19:16:49.127Z,29.10
2023-05-18T19:19:15.880Z,29.10
2023-05-18T19:21:42.586Z,29.20
2023-05-18T19:24:09.361Z,29.30
2023-05-18T19:26:36.205Z,29.40
2023-05-18T19:29:04.224Z,29.40
2023-05-18T19:31:31.015Z,29.40
2023-05-18T19:33:57.726Z,29.40
2023-05-18T19:36:24.434Z,29.60
2023-05-18T19:38:51.201Z,29.70
2023-05-18T19:41:17.898Z,29.60
2023-05-18T19:43:44.691Z,29.80
2023-05-18T19:46:12.906Z,29.80
2023-05-18T19:48:39.685Z,30.00
2023-05-18T19:51:06.416Z,30.00
2023-05-18T19:53:33.110Z,30.30
2023-05-18T19:56:00.134Z,30.10
2023-05-18T19:58:27.810Z,30.20
2023-05-18T20:00:54.575Z,30.40
2023-05-18T20:03:22.721Z,30.40
2023-05-18T20:05:49.497Z,30.50
2023-05-18T20:08:16.196Z,30.80
2023-05-18T20:10:42.880Z,31.20
2023-05-18T20:13:09.577Z,31.30
2023-05-18T20:15:36.327Z,31.10
2023-05-18T20:18:04.543Z,30.80
2023-05-18T20:20:34.169Z,30.90
2023-05-18T20:23:01.295Z,31.10
2023-05-18T20:25:28.002Z,31.10
2023-05-18T20:27:54.782Z,31.10
2023-05-18T20:30:21.586Z,31.40
2023-05-18T20:32:48.464Z,31.20
2023-05-18T20:35:15.310Z,31.20
2023-05-18T20:37:43.341Z,31.50
2023-05-18T20:40:10.596Z,31.40
2023-05-18T20:42:37.284Z,32.30
2023-05-18T20:45:04.512Z,32.20
2023-05-18T20:47:31.304Z,32.10
2023-05-18T20:49:58.039Z,33.40
2023-05-18T20:52:24.775Z,32.80
2023-05-18T20:54:52.868Z,32.90
2023-05-18T20:57:19.629Z,32.80
2023-05-18T20:59:46.468Z,33.00
2023-05-18T21:02:13.294Z,32.20
2023-05-18T21:04:39.990Z,32.40
2023-05-18T21:07:06.686Z,32.90
2023-05-18T21:09:33.394Z,33.30
2023-05-18T21:12:01.489Z,33.20
2023-05-18T21:14:28.209Z,33.10
2023-05-18T21:16:54.885Z,33.00
2023-05-18T21:19:21.636Z,32.70
2023-05-18T21:21:48.372Z,33.10
2023-05-18T21:24:15.065Z,33.00
2023-05-18T21:26:41.759Z,32.70
2023-05-18T21:29:09.788Z,32.30
2023-05-18T21:31:36.596Z,32.40
2023-05-18T21:34:03.345Z,32.40
2023-05-18T21:36:30.500Z,32.60
2023-05-18T21:38:57.188Z,32.40
2023-05-18T21:41:23.916Z,32.60
2023-05-18T21:43:50.637Z,32.60
2023-05-18T21:46:18.725Z,32.50
2023-05-18T21:48:45.492Z,32.80
2023-05-18T21:51:12.194Z,33.00
2023-05-18T21:53:38.867Z,33.10
2023-05-18T21:56:06.440Z,32.90
2023-05-18T21:58:33.143Z,32.20
2023-05-18T22:01:00.011Z,32.10
2023-05-18T22:03:28.132Z,32.80
2023-05-18T22:05:54.913Z,32.80
2023-05-18T22:08:21.627Z,33.40
2023-05-18T22:10:48.391Z,33.30
2023-05-18T22:13:15.204Z,32.90
2023-05-18T22:15:41.973Z,33.30
2023-05-18T22:18:08.850Z,33.00
2023-05-18T22:20:36.927Z,32.50
2023-05-18T22:23:03.731Z,32.40
2023-05-18T22:25:30.471Z,32.50
2023-05-18T22:27:57.276Z,33.20
2023-05-18T22:30:24.116Z,33.50
2023-05-18T22:32:50.944Z,34.60
2023-05-18T22:35:17.840Z,34.80
2023-05-18T22:37:46.380Z,34.40
2023-05-18T22:40:13.615Z,34.50
2023-05-18T22:42:40.443Z,34.60
2023-05-18T22:45:08.916Z,34.30
2023-05-18T22:47:35.702Z,34.50
2023-05-18T22:50:02.450Z,34.80
2023-05-18T22:52:29.275Z,35.00
2023-05-18T22:54:57.348Z,35.20
2023-05-18T22:57:24.074Z,35.10
2023-05-18T22:59:50.808Z,35.30
2023-05-18T23:02:17.524Z,35.40
2023-05-18T23:04:44.341Z,35.50
2023-05-18T23:07:11.218Z,35.50
2023-05-18T23:09:37.947Z,36.10
2023-05-18T23:12:07.325Z,36.30
2023-05-18T23:14:34.045Z,36.30
2023-05-18T23:17:00.917Z,36.30
2023-05-18T23:19:28.330Z,36.10
2023-05-18T23:21:55.616Z,36.70
2023-05-18T23:24:22.422Z,35.20
2023-05-18T23:26:49.187Z,34.80
2023-05-18T23:29:17.358Z,34.70
2023-05-18T23:31:44.045Z,35.20
2023-05-18T23:34:11.357Z,34.80
2023-05-18T23:36:39.440Z,35.00
2023-05-18T23:39:06.663Z,34.80
2023-05-18T23:41:35.704Z,34.50
2023-05-18T23:44:03.187Z,35.10
2023-05-18T23:46:32.030Z,34.80
2023-05-18T23:48:59.359Z,34.60
2023-05-18T23:51:29.723Z,34.60
2023-05-18T23:53:57.348Z,34.60
2023-05-18T23:56:24.760Z,34.70
2023-05-18T23:58:51.944Z,34.40
